createdAt,value
2022-07-28T00:01:54.739Z,15.77
2022-07-28T00:04:24.126Z,19.00
2022-07-28T00:06:53.419Z,18.80
2022-07-28T00:09:22.577Z,20.58
2022-07-28T00:11:54.928Z,19.48
2022-07-28T00:14:25.649Z,19.60
2022-07-28T00:19:57.491Z,17.05
2022-07-28T00:22:27.518Z,15.52
2022-07-28T00:24:56.885Z,16.45
2022-07-28T00:27:26.169Z,15.02
2022-07-28T00:29:55.437Z,14.30
2022-07-28T00:32:24.770Z,14.45
2022-07-28T00:34:56.951Z,14.55
2022-07-28T00:37:26.277Z,14.43
2022-07-28T00:39:55.716Z,14.77
2022-07-28T00:42:25.300Z,14.73
2022-07-28T00:44:54.674Z,14.57
2022-07-28T00:47:24.143Z,15.32
2022-07-28T00:49:53.736Z,14.18
2022-07-28T00:52:25.212Z,15.32
2022-07-28T00:54:55.219Z,13.18
2022-07-28T00:57:24.531Z,14.13
2022-07-28T00:59:54.223Z,12.80
2022-07-28T01:02:26.685Z,13.50
2022-07-28T01:04:56.173Z,14.25
2022-07-28T01:07:47.698Z,14.35
2022-07-28T01:10:42.169Z,14.82
2022-07-28T01:13:44.223Z,12.23
2022-07-28T01:16:14.291Z,15.68
2022-07-28T01:18:53.682Z,14.93
2022-07-28T01:21:36.588Z,15.02
2022-07-28T01:24:39.547Z,14.20
2022-07-28T01:27:28.936Z,12.25
2022-07-28T01:30:30.944Z,11.70
2022-07-28T01:33:19.377Z,11.57
2022-07-28T01:36:04.128Z,11.05
2022-07-28T01:38:38.481Z,10.85
2022-07-28T01:41:15.855Z,11.27
2022-07-28T01:43:52.354Z,12.07
2022-07-28T01:46:23.814Z,12.43
2022-07-28T01:48:55.076Z,13.50
2022-07-28T01:51:28.356Z,12.27
2022-07-28T01:54:01.706Z,11.70
2022-07-28T01:56:34.898Z,10.07
2022-07-28T01:59:10.973Z,10.82
2022-07-28T02:01:48.417Z,9.77
2022-07-28T02:04:22.795Z,9.90
2022-07-28T02:06:55.410Z,9.88
2022-07-28T02:09:33.210Z,10.10
2022-07-28T02:12:06.065Z,10.48
2022-07-28T02:14:38.377Z,9.80
2022-07-28T02:17:24.171Z,8.75
2022-07-28T02:19:55.626Z,7.13
2022-07-28T02:22:30.139Z,6.78
2022-07-28T02:25:05.245Z,7.20
2022-07-28T02:28:02.730Z,7.15
2022-07-28T02:31:05.266Z,7.78
2022-07-28T02:33:58.761Z,7.22
2022-07-28T02:36:41.431Z,7.22
2022-07-28T02:39:27.773Z,7.43
2022-07-28T02:42:16.128Z,6.68
2022-07-28T02:45:00.436Z,7.32
2022-07-28T02:47:41.730Z,8.63
2022-07-28T02:50:16.873Z,5.38
2022-07-28T02:52:49.189Z,5.70
2022-07-28T02:55:19.687Z,5.15
2022-07-28T02:57:56.215Z,5.20
2022-07-28T03:00:27.989Z,6.05
2022-07-28T03:03:00.142Z,5.95
2022-07-28T03:05:30.356Z,5.28
2022-07-28T03:08:00.649Z,5.18
2022-07-28T03:10:33.442Z,6.03
2022-07-28T03:13:07.931Z,6.03
2022-07-28T03:15:41.350Z,5.95
2022-07-28T03:18:10.943Z,5.22
2022-07-28T03:20:40.305Z,5.50
2022-07-28T03:23:11.746Z,4.70
2022-07-28T03:25:53.287Z,5.10
2022-07-28T03:28:25.028Z,4.57
2022-07-28T03:31:05.189Z,4.22
2022-07-28T03:33:35.432Z,5.65
2022-07-28T03:36:13.790Z,5.28
2022-07-28T03:39:00.363Z,4.00
2022-07-28T03:41:32.506Z,4.18
2022-07-28T03:44:04.087Z,4.75
2022-07-28T03:46:34.794Z,4.65
2022-07-28T03:49:08.852Z,5.60
2022-07-28T03:51:38.430Z,4.82
2022-07-28T03:54:07.814Z,4.00
2022-07-28T03:56:37.080Z,3.83
2022-07-28T03:59:06.442Z,4.05
2022-07-28T04:01:36.198Z,4.10
2022-07-28T04:04:06.023Z,4.30
2022-07-28T04:06:35.391Z,4.63
2022-07-28T04:09:04.966Z,3.65
2022-07-28T04:11:34.312Z,4.78
2022-07-28T04:14:03.623Z,5.32
2022-07-28T04:16:32.986Z,5.05
2022-07-28T04:19:02.260Z,4.80
2022-07-28T04:21:31.658Z,5.70
2022-07-28T04:24:02.109Z,5.20
2022-07-28T04:26:31.886Z,5.03
2022-07-28T04:29:03.388Z,4.68
2022-07-28T04:31:33.237Z,4.38
2022-07-28T04:34:02.690Z,4.30
2022-07-28T04:36:32.057Z,5.65
2022-07-28T04:39:01.546Z,5.45
2022-07-28T04:41:30.929Z,4.75
2022-07-28T04:44:00.498Z,4.70
2022-07-28T04:46:29.842Z,4.78
2022-07-28T04:48:59.296Z,4.70
2022-07-28T04:51:28.908Z,4.85
2022-07-28T04:53:58.152Z,5.00
2022-07-28T04:56:28.586Z,5.75
2022-07-28T04:58:59.572Z,5.03
2022-07-28T05:01:29.747Z,4.60
2022-07-28T05:03:59.331Z,4.65
2022-07-28T05:06:28.733Z,4.20
2022-07-28T05:08:58.127Z,5.57
2022-07-28T05:11:27.405Z,5.43
2022-07-28T05:13:57.005Z,4.78
2022-07-28T05:16:26.369Z,4.70
2022-07-28T05:18:56.089Z,4.32
2022-07-28T05:21:25.598Z,4.95
2022-07-28T05:23:54.813Z,4.22
2022-07-28T05:26:24.349Z,4.13
2022-07-28T05:28:53.605Z,4.55
2022-07-28T05:31:23.378Z,4.50
2022-07-28T05:33:53.121Z,5.60
2022-07-28T05:36:22.396Z,5.10
2022-07-28T05:38:51.635Z,4.80
2022-07-28T05:41:20.933Z,4.35
2022-07-28T05:43:50.164Z,5.00
2022-07-28T05:46:19.567Z,4.53
2022-07-28T05:48:48.975Z,4.57
2022-07-28T05:51:18.283Z,4.72
2022-07-28T05:53:47.862Z,4.30
2022-07-28T05:56:17.352Z,4.47
2022-07-28T05:58:46.758Z,4.57
2022-07-28T06:01:16.220Z,4.53
2022-07-28T06:03:47.840Z,4.93
2022-07-28T06:06:27.386Z,4.88
2022-07-28T06:08:56.666Z,4.43
2022-07-28T06:11:25.950Z,3.92
2022-07-28T06:13:55.424Z,3.65
2022-07-28T06:16:24.983Z,3.50
2022-07-28T06:18:54.987Z,4.07
2022-07-28T06:21:25.539Z,3.78
2022-07-28T06:23:54.879Z,3.90
2022-07-28T06:26:24.100Z,4.15
2022-07-28T06:28:53.669Z,4.18
2022-07-28T06:31:22.994Z,3.83
2022-07-28T06:33:52.335Z,3.92
2022-07-28T06:36:21.666Z,3.90
2022-07-28T06:38:51.262Z,4.05
2022-07-28T06:41:20.641Z,4.07
2022-07-28T06:43:49.962Z,3.80
2022-07-28T06:46:20.621Z,4.00
2022-07-28T06:48:50.433Z,3.63
2022-07-28T06:51:20.966Z,3.80
2022-07-28T06:53:50.632Z,3.60
2022-07-28T06:56:21.504Z,3.95
2022-07-28T06:58:51.256Z,3.92
2022-07-28T07:01:21.127Z,3.40
2022-07-28T07:03:50.563Z,4.45
2022-07-28T07:06:19.747Z,3.70
2022-07-28T07:08:49.530Z,3.67
2022-07-28T07:11:18.904Z,3.92
2022-07-28T07:13:48.278Z,3.28
2022-07-28T07:16:17.901Z,3.53
2022-07-28T07:18:49.364Z,3.13
2022-07-28T07:21:18.668Z,4.38
2022-07-28T07:23:48.195Z,3.28
2022-07-28T07:26:17.459Z,3.95
2022-07-28T07:28:46.819Z,4.22
2022-07-28T07:31:16.513Z,4.32
2022-07-28T07:33:45.813Z,4.65
2022-07-28T07:36:15.103Z,3.63
2022-07-28T07:38:46.609Z,3.92
2022-07-28T07:41:15.853Z,4.10
2022-07-28T07:43:47.721Z,3.97
2022-07-28T07:46:19.815Z,6.03
2022-07-28T07:48:49.381Z,4.68
2022-07-28T07:51:18.797Z,4.15
2022-07-28T07:53:48.221Z,3.47
2022-07-28T07:56:19.379Z,3.85
2022-07-28T07:58:52.399Z,3.83
2022-07-28T08:01:24.456Z,5.05
2022-07-28T08:03:54.261Z,4.60
2022-07-28T08:06:26.205Z,4.45
2022-07-28T08:08:57.446Z,4.72
2022-07-28T08:11:26.785Z,4.57
2022-07-28T08:13:56.063Z,4.10
2022-07-28T08:16:25.483Z,3.80
2022-07-28T08:18:54.890Z,3.80
2022-07-28T08:21:24.167Z,3.20
2022-07-28T08:23:56.817Z,2.95
2022-07-28T08:26:27.346Z,3.10
2022-07-28T08:28:56.836Z,3.70
2022-07-28T08:31:26.188Z,3.75
2022-07-28T08:33:55.614Z,5.80
2022-07-28T08:36:25.204Z,4.28
2022-07-28T08:38:54.670Z,4.03
2022-07-28T08:41:53.275Z,2.80
2022-07-28T08:44:32.680Z,3.70
2022-07-28T08:47:02.973Z,3.28
2022-07-28T08:49:34.807Z,3.67
2022-07-28T08:52:14.742Z,4.75
2022-07-28T08:54:50.025Z,3.25
2022-07-28T08:57:32.867Z,2.70
2022-07-28T09:00:04.410Z,2.83
2022-07-28T09:02:37.652Z,3.38
2022-07-28T09:05:08.397Z,3.70
2022-07-28T09:07:42.464Z,2.60
2022-07-28T09:10:13.075Z,2.20
2022-07-28T09:12:42.568Z,2.88
2022-07-28T09:15:14.639Z,3.67
2022-07-28T09:17:44.647Z,3.17
2022-07-28T09:20:14.884Z,4.05
2022-07-28T09:23:02.016Z,3.97
2022-07-28T09:25:33.527Z,2.53
2022-07-28T09:28:20.167Z,2.30
2022-07-28T09:30:54.220Z,2.80
2022-07-28T09:33:43.046Z,3.25
2022-07-28T09:36:17.882Z,3.90
2022-07-28T09:38:48.075Z,2.65
2022-07-28T09:41:19.863Z,3.53
2022-07-28T09:43:54.970Z,4.78
2022-07-28T09:46:30.140Z,2.92
2022-07-28T09:49:01.960Z,3.17
2022-07-28T09:51:35.331Z,4.53
2022-07-28T09:54:18.771Z,3.75
2022-07-28T09:56:48.595Z,9.85
2022-07-28T09:59:20.048Z,5.13
2022-07-28T10:02:03.480Z,3.70
2022-07-28T10:04:39.579Z,3.20
2022-07-28T10:07:12.464Z,3.83
2022-07-28T10:09:42.905Z,4.70
2022-07-28T10:12:26.629Z,4.75
2022-07-28T10:14:59.504Z,4.53
2022-07-28T10:17:36.337Z,3.65
2022-07-28T10:20:09.376Z,3.90
2022-07-28T10:22:43.391Z,4.75
2022-07-28T10:25:14.250Z,6.25
2022-07-28T10:27:46.873Z,3.50
2022-07-28T10:30:17.164Z,4.00
2022-07-28T10:32:47.764Z,3.28
2022-07-28T10:35:19.114Z,3.08
2022-07-28T10:38:09.019Z,3.20
2022-07-28T10:40:47.483Z,3.85
2022-07-28T10:43:17.609Z,4.28
2022-07-28T10:46:04.959Z,3.20
2022-07-28T10:51:05.886Z,3.88
2022-07-28T10:53:55.449Z,3.78
2022-07-28T10:57:00.067Z,5.05
2022-07-28T11:00:24.529Z,4.03
2022-07-28T11:03:00.512Z,4.65
2022-07-28T11:05:40.184Z,5.65
2022-07-28T11:08:30.023Z,4.82
2022-07-28T11:11:09.489Z,4.70
2022-07-28T11:13:40.868Z,5.15
2022-07-28T11:16:22.971Z,5.60
2022-07-28T11:19:36.655Z,4.20
2022-07-28T11:22:34.732Z,4.72
2022-07-28T11:25:22.609Z,4.85
2022-07-28T11:28:08.477Z,4.95
2022-07-28T11:30:52.820Z,4.93
2022-07-28T11:33:22.899Z,5.38
2022-07-28T11:35:57.269Z,5.68
2022-07-28T11:38:27.758Z,5.32
2022-07-28T11:40:58.351Z,5.10
2022-07-28T11:43:36.007Z,5.22
2022-07-28T11:46:28.006Z,4.75
2022-07-28T11:49:18.752Z,4.63
2022-07-28T11:52:16.866Z,4.45
2022-07-28T11:54:57.052Z,4.95
2022-07-28T11:57:28.598Z,6.13
2022-07-28T12:00:08.493Z,6.70
2022-07-28T12:02:38.132Z,7.03
2022-07-28T12:05:14.152Z,9.45
2022-07-28T12:08:48.040Z,8.30
2022-07-28T12:11:17.493Z,7.55
2022-07-28T12:13:47.526Z,7.07
2022-07-28T12:16:19.057Z,6.60
2022-07-28T12:18:54.818Z,6.78
2022-07-28T12:21:56.567Z,5.63
2022-07-28T12:24:44.750Z,5.68
2022-07-28T12:27:16.624Z,6.53
2022-07-28T12:30:01.786Z,6.57
2022-07-28T12:32:39.183Z,7.38
2022-07-28T12:35:09.347Z,5.65
2022-07-28T12:37:41.527Z,6.00
2022-07-28T12:40:14.542Z,5.55
2022-07-28T12:42:44.543Z,5.10
2022-07-28T12:45:17.516Z,4.68
2022-07-28T12:47:46.928Z,7.82
2022-07-28T12:50:21.028Z,7.78
2022-07-28T12:53:11.247Z,6.40
2022-07-28T12:55:45.450Z,5.68
2022-07-28T12:58:29.797Z,5.57
2022-07-28T13:01:01.019Z,6.03
2022-07-28T13:03:31.396Z,7.30
2022-07-28T13:06:13.292Z,7.68
2022-07-28T13:08:48.045Z,7.75
2022-07-28T13:11:42.544Z,8.15
2022-07-28T13:14:09.237Z,7.10
2022-07-28T13:16:39.177Z,7.25
2022-07-28T13:19:08.558Z,6.03
2022-07-28T13:21:58.995Z,6.00
2022-07-28T13:24:32.985Z,5.10
2022-07-28T13:27:04.717Z,5.50
2022-07-28T13:29:38.436Z,5.72
2022-07-28T13:32:08.552Z,5.50
2022-07-28T13:34:37.985Z,6.35
2022-07-28T13:37:07.996Z,5.70
2022-07-28T13:39:37.513Z,6.15
2022-07-28T13:42:11.995Z,5.70
2022-07-28T13:44:45.786Z,5.97
2022-07-28T13:47:17.357Z,6.38
2022-07-28T13:49:49.621Z,6.65
2022-07-28T13:52:26.345Z,6.35
2022-07-28T13:55:04.528Z,5.68
2022-07-28T13:57:36.392Z,6.75
2022-07-28T14:00:09.082Z,5.97
2022-07-28T14:02:38.463Z,5.88
2022-07-28T14:05:14.064Z,5.97
2022-07-28T14:07:48.333Z,6.47
2022-07-28T14:10:19.669Z,5.80
2022-07-28T14:12:49.108Z,6.40
2022-07-28T14:15:18.449Z,5.90
2022-07-28T14:17:56.296Z,5.43
2022-07-28T14:20:25.592Z,6.32
2022-07-28T14:22:54.970Z,5.72
2022-07-28T14:25:27.279Z,5.97
2022-07-28T14:27:57.188Z,6.18
2022-07-28T14:30:28.523Z,6.30
2022-07-28T14:32:58.606Z,6.03
2022-07-28T14:35:28.026Z,6.22
2022-07-28T14:40:47.179Z,7.13
2022-07-28T14:43:16.519Z,5.88
2022-07-28T14:46:05.475Z,6.97
2022-07-28T14:48:35.964Z,6.28
2022-07-28T14:51:10.686Z,6.60
2022-07-28T14:53:45.221Z,6.32
2022-07-28T14:56:23.815Z,6.15
2022-07-28T14:58:53.359Z,6.72
2022-07-28T15:01:26.290Z,6.38
2022-07-28T15:03:55.701Z,5.75
2022-07-28T15:06:24.970Z,6.80
2022-07-28T15:08:56.597Z,7.35
2022-07-28T15:11:26.135Z,6.00
2022-07-28T15:13:55.483Z,6.57
2022-07-28T15:16:24.903Z,6.47
2022-07-28T15:18:55.318Z,6.30
2022-07-28T15:21:24.601Z,6.65
2022-07-28T15:23:54.646Z,5.93
2022-07-28T15:26:24.073Z,6.63
2022-07-28T15:28:55.787Z,6.00
2022-07-28T15:31:30.318Z,6.30
2022-07-28T15:34:11.066Z,6.80
2022-07-28T15:36:40.952Z,6.53
2022-07-28T15:39:15.007Z,6.53
2022-07-28T15:41:47.916Z,7.70
2022-07-28T15:44:17.918Z,6.40
2022-07-28T15:49:25.431Z,6.30
2022-07-28T15:51:57.726Z,6.38
2022-07-28T15:54:27.330Z,6.20
2022-07-28T15:56:56.617Z,6.20
2022-07-28T15:59:50.039Z,6.03
2022-07-28T16:02:18.009Z,5.78
2022-07-28T16:04:53.227Z,5.80
2022-07-28T16:07:24.842Z,6.80
2022-07-28T16:09:56.686Z,6.43
2022-07-28T16:12:27.123Z,7.35
2022-07-28T16:14:57.174Z,7.05
2022-07-28T16:17:27.578Z,7.18
2022-07-28T16:20:02.232Z,7.13
2022-07-28T16:22:32.033Z,7.10
2022-07-28T16:25:07.272Z,7.03
2022-07-28T16:27:38.551Z,7.38
2022-07-28T16:30:08.686Z,6.38
2022-07-28T16:32:38.007Z,6.50
2022-07-28T16:35:09.418Z,6.88
2022-07-28T16:37:39.717Z,7.07
2022-07-28T16:40:12.025Z,7.22
2022-07-28T16:42:41.373Z,6.00
2022-07-28T16:45:11.405Z,6.40
2022-07-28T16:47:40.923Z,6.95
2022-07-28T16:50:10.747Z,6.53
2022-07-28T16:52:42.809Z,5.82
2022-07-28T16:55:16.897Z,6.30
2022-07-28T16:57:48.658Z,6.53
2022-07-28T17:00:19.383Z,6.85
2022-07-28T17:02:48.797Z,7.63
2022-07-28T17:05:18.056Z,5.90
2022-07-28T17:07:48.515Z,6.38
2022-07-28T17:10:20.194Z,6.82
2022-07-28T17:12:50.672Z,7.43
2022-07-28T17:15:22.798Z,6.07
2022-07-28T17:17:57.104Z,5.85
2022-07-28T17:20:26.747Z,5.72
2022-07-28T17:22:56.110Z,6.40
2022-07-28T17:28:15.490Z,6.57
2022-07-28T17:30:44.979Z,5.97
2022-07-28T17:33:14.527Z,5.70
2022-07-28T17:35:44.023Z,5.85
2022-07-28T17:38:13.737Z,6.00
2022-07-28T17:40:44.105Z,6.00
2022-07-28T17:43:15.506Z,5.20
2022-07-28T17:45:45.997Z,5.28
2022-07-28T17:48:16.005Z,6.03
2022-07-28T17:50:46.194Z,6.07
2022-07-28T17:53:16.842Z,5.60
2022-07-28T17:56:00.601Z,5.57
2022-07-28T17:58:32.731Z,6.28
2022-07-28T18:01:09.580Z,6.10
2022-07-28T18:03:59.343Z,5.72
2022-07-28T18:06:36.336Z,5.40
2022-07-28T18:09:11.624Z,5.72
2022-07-28T18:11:57.044Z,5.80
2022-07-28T18:14:33.767Z,5.45
2022-07-28T18:17:03.227Z,6.15
2022-07-28T18:19:32.533Z,5.85
2022-07-28T18:22:01.823Z,6.05
2022-07-28T18:24:31.269Z,5.97
2022-07-28T18:27:00.764Z,6.43
2022-07-28T18:29:38.129Z,6.03
2022-07-28T18:32:12.135Z,5.93
2022-07-28T18:34:42.665Z,5.93
2022-07-28T18:37:13.890Z,7.45
2022-07-28T18:39:43.331Z,6.30
2022-07-28T18:42:12.951Z,6.30
2022-07-28T18:44:42.512Z,6.70
2022-07-28T18:47:11.958Z,6.45
2022-07-28T18:49:41.241Z,6.82
2022-07-28T18:52:10.684Z,7.15
2022-07-28T18:54:40.004Z,6.97
2022-07-28T18:57:09.394Z,7.07
2022-07-28T18:59:43.879Z,6.97
2022-07-28T19:02:15.846Z,6.53
2022-07-28T19:04:48.112Z,7.10
2022-07-28T19:07:17.778Z,7.28
2022-07-28T19:09:47.350Z,6.78
2022-07-28T19:12:16.841Z,6.63
2022-07-28T19:14:49.033Z,6.25
2022-07-28T19:17:21.761Z,6.70
2022-07-28T19:19:57.026Z,7.20
2022-07-28T19:22:26.868Z,6.35
2022-07-28T19:24:56.190Z,7.88
2022-07-28T19:27:25.543Z,7.13
2022-07-28T19:30:00.481Z,7.15
2022-07-28T19:32:29.910Z,6.47
2022-07-28T19:34:59.778Z,7.20
2022-07-28T19:37:29.497Z,6.35
2022-07-28T19:39:58.874Z,7.80
2022-07-28T19:42:30.598Z,7.80
2022-07-28T19:45:01.139Z,6.85
2022-07-28T19:47:30.484Z,7.72
2022-07-28T19:49:59.693Z,6.25
2022-07-28T19:52:29.102Z,7.32
2022-07-28T19:55:00.618Z,7.68
2022-07-28T19:57:29.913Z,7.05
2022-07-28T20:00:02.988Z,6.82
2022-07-28T20:02:32.327Z,6.40
2022-07-28T20:05:01.584Z,7.97
2022-07-28T20:07:30.887Z,6.93
2022-07-28T20:10:01.940Z,6.68
2022-07-28T20:12:36.165Z,7.07
2022-07-28T20:15:08.449Z,8.05
2022-07-28T20:17:39.500Z,7.57
2022-07-28T20:20:12.474Z,6.75
2022-07-28T20:22:43.207Z,7.88
2022-07-28T20:25:14.446Z,7.82
2022-07-28T20:27:45.088Z,6.57
2022-07-28T20:30:15.299Z,7.22
2022-07-28T20:32:45.342Z,7.05
2022-07-28T20:35:15.406Z,7.32
2022-07-28T20:37:45.353Z,7.28
2022-07-28T20:40:14.681Z,7.88
2022-07-28T20:42:48.696Z,7.47
2022-07-28T20:45:22.136Z,7.63
2022-07-28T20:47:51.640Z,7.20
2022-07-28T20:50:22.001Z,7.68
2022-07-28T20:52:51.480Z,7.78
2022-07-28T20:55:21.772Z,8.00
2022-07-28T20:57:54.034Z,8.25
2022-07-28T21:00:26.813Z,8.27
2022-07-28T21:02:56.173Z,7.28
2022-07-28T21:05:34.704Z,7.70
2022-07-28T21:08:09.247Z,8.13
2022-07-28T21:10:45.834Z,7.93
2022-07-28T21:13:15.185Z,8.30
2022-07-28T21:15:44.578Z,7.85
2022-07-28T21:18:15.042Z,8.10
2022-07-28T21:20:44.394Z,7.93
2022-07-28T21:23:13.825Z,8.13
2022-07-28T21:25:45.243Z,7.45
2022-07-28T21:28:27.538Z,8.85
2022-07-28T21:30:56.899Z,8.30
2022-07-28T21:33:26.219Z,7.38
2022-07-28T21:35:56.270Z,8.30
2022-07-28T21:38:25.528Z,8.48
2022-07-28T21:40:54.905Z,8.57
2022-07-28T21:43:24.575Z,8.52
2022-07-28T21:45:54.011Z,10.13
2022-07-28T21:48:25.992Z,10.02
2022-07-28T21:50:56.016Z,9.90
2022-07-28T21:53:25.895Z,9.88
2022-07-28T21:55:55.402Z,8.50
2022-07-28T21:58:24.721Z,9.68
2022-07-28T22:00:57.140Z,10.95
2022-07-28T22:03:30.266Z,9.40
2022-07-28T22:05:59.683Z,9.80
2022-07-28T22:08:29.078Z,9.35
2022-07-28T22:10:58.430Z,9.27
2022-07-28T22:13:28.203Z,9.32
2022-07-28T22:15:57.724Z,8.85
2022-07-28T22:18:27.036Z,8.90
2022-07-28T22:20:56.335Z,9.13
2022-07-28T22:23:29.268Z,9.25
2022-07-28T22:25:59.469Z,8.57
2022-07-28T22:28:29.819Z,10.05
2022-07-28T22:31:08.779Z,9.18
2022-07-28T22:33:40.515Z,9.52
2022-07-28T22:36:11.675Z,9.35
2022-07-28T22:38:41.031Z,9.55
2022-07-28T22:41:10.739Z,9.75
2022-07-28T22:43:40.088Z,10.20
2022-07-28T22:46:11.897Z,10.07
2022-07-28T22:48:41.538Z,9.48
2022-07-28T22:51:18.071Z,9.55
2022-07-28T22:53:47.403Z,9.32
2022-07-28T22:56:18.226Z,9.30
2022-07-28T22:58:47.603Z,9.82
2022-07-28T23:01:17.841Z,9.35
2022-07-28T23:03:47.584Z,9.75
2022-07-28T23:06:17.189Z,9.38
2022-07-28T23:08:46.554Z,9.80
2022-07-28T23:11:15.889Z,9.90
2022-07-28T23:13:45.215Z,9.73
2022-07-28T23:16:18.098Z,9.38
2022-07-28T23:18:48.006Z,10.00
2022-07-28T23:21:17.505Z,13.60
2022-07-28T23:23:46.861Z,13.77
2022-07-28T23:26:16.134Z,12.98
2022-07-28T23:28:45.918Z,10.60
2022-07-28T23:31:15.326Z,10.75
2022-07-28T23:33:55.586Z,10.45
2022-07-28T23:36:28.253Z,11.00
2022-07-28T23:39:00.086Z,10.57
2022-07-28T23:41:31.006Z,10.35
2022-07-28T23:44:00.364Z,9.90
2022-07-28T23:46:29.741Z,10.57
2022-07-28T23:48:59.159Z,10.68
2022-07-28T23:51:38.331Z,11.77
2022-07-28T23:54:18.143Z,10.90
2022-07-28T23:56:48.032Z,10.43
2022-07-28T23:59:17.470Z,10.77
